Time;durP1;ratioP1;P1;durP2;ratioP2;P2;SDS_P1;SDS_P2;PMS_P1;PMS_P2;Temp;Humidity;BMP_temperature;BMP_pressure;BME280_temperature;BME280_humidity;BME280_pressure;Samples;Min_cycle;Max_cycle;Signal;HPM_P1;HPM_P2
2021/06/26 00:00:35;;;;;;;35.23;28.42;;;;;;;18.80;74.88;97256.23;1775851;80;26977;-84
2021/06/26 00:03:03;;;;;;;38.17;27.75;;;;;;;18.84;74.93;97262.78;1775331;79;25762;-85
2021/06/26 00:05:30;;;;;;;35.98;28.38;;;;;;;18.89;74.92;97261.45;1775862;80;25764;-85
2021/06/26 00:07:56;;;;;;;38.25;29.72;;;;;;;18.94;74.76;97263.39;1775681;79;25750;-84
2021/06/26 00:10:23;;;;;;;37.50;28.20;;;;;;;18.95;74.72;97261.77;1775795;80;25705;-83
2021/06/26 00:12:50;;;;;;;33.50;28.73;;;;;;;18.96;74.76;97260.64;1775304;80;28277;-85
2021/06/26 00:15:16;;;;;;;35.03;27.70;;;;;;;18.94;74.71;97264.22;1775816;80;25752;-85
2021/06/26 00:17:43;;;;;;;35.90;30.55;;;;;;;18.93;74.82;97266.67;1775494;80;25271;-81
2021/06/26 00:20:11;;;;;;;36.83;29.50;;;;;;;18.93;74.80;97268.05;1775673;80;25804;-85
2021/06/26 00:22:38;;;;;;;38.60;30.00;;;;;;;18.94;74.71;97266.95;1775944;80;25696;-86
2021/06/26 00:25:05;;;;;;;34.35;28.60;;;;;;;18.98;74.62;97265.85;1775730;80;27414;-85
2021/06/26 00:27:32;;;;;;;35.52;30.20;;;;;;;18.98;74.55;97268.05;1779588;79;25799;-85
2021/06/26 00:29:58;;;;;;;35.13;29.48;;;;;;;18.99;74.49;97264.22;1759709;80;25798;-86
2021/06/26 00:32:25;;;;;;;35.23;29.60;;;;;;;18.98;74.48;97273.52;1781827;80;26081;-86
2021/06/26 00:34:51;;;;;;;34.10;28.60;;;;;;;18.92;74.54;97262.30;1781555;80;25657;-86
2021/06/26 00:37:18;;;;;;;34.75;30.80;;;;;;;18.86;74.71;97263.34;1760044;80;28295;-85
2021/06/26 00:39:45;;;;;;;35.35;29.07;;;;;;;18.79;74.56;97265.52;1781387;80;25662;-86
2021/06/26 00:42:11;;;;;;;36.95;30.02;;;;;;;18.80;74.70;97269.08;1759684;80;25768;-85
2021/06/26 00:44:38;;;;;;;36.15;29.95;;;;;;;18.85;74.78;97270.45;1781742;80;25886;-86
2021/06/26 00:47:11;;;;;;;34.63;29.32;;;;;;;18.85;74.86;97261.70;1759760;80;25722;-85
2021/06/26 00:49:33;;;;;;;34.98;29.72;;;;;;;18.80;74.86;97264.98;1766679;80;28144;-86
2021/06/26 00:51:59;;;;;;;36.35;30.52;;;;;;;18.76;74.96;97267.95;1772165;80;26066;-85
2021/06/26 00:54:26;;;;;;;29.85;26.20;;;;;;;18.78;75.13;97267.15;1781671;80;25729;-85
2021/06/26 00:56:53;;;;;;;31.65;26.45;;;;;;;18.73;74.72;97263.84;1781601;80;26463;-86
2021/06/26 00:59:20;;;;;;;32.85;27.05;;;;;;;18.71;74.59;97266.04;1759782;80;25789;-85
2021/06/26 01:01:46;;;;;;;32.95;27.40;;;;;;;18.71;74.74;97263.31;1765152;80;28064;-86
2021/06/26 01:04:13;;;;;;;33.30;27.77;;;;;;;18.74;74.83;97267.39;1776410;80;25971;-85
2021/06/26 01:06:40;;;;;;;32.15;26.90;;;;;;;18.77;74.87;97269.06;1781618;79;25678;-86
2021/06/26 01:09:06;;;;;;;32.73;27.58;;;;;;;18.80;74.91;97264.98;1759819;80;25765;-86
2021/06/26 01:11:34;;;;;;;34.08;28.87;;;;;;;18.77;74.80;97258.13;1781780;79;25787;-85
2021/06/26 01:14:01;;;;;;;34.55;28.90;;;;;;;18.76;74.72;97253.74;1781609;80;27435;-85
2021/06/26 01:16:29;;;;;;;37.28;29.77;;;;;;;18.69;74.68;97253.17;1759751;80;25789;-86
2021/06/26 01:18:55;;;;;;;33.83;28.85;;;;;;;18.69;74.72;97258.64;1762876;80;25721;-85
2021/06/26 01:21:23;;;;;;;35.17;30.65;;;;;;;18.67;74.75;97256.72;1772321;80;26491;-85
2021/06/26 01:23:52;;;;;;;37.25;30.12;;;;;;;18.63;74.76;97258.33;1750595;80;25697;-86
2021/06/26 01:26:21;;;;;;;35.58;28.92;;;;;;;18.58;74.82;97250.13;1776052;79;27453;-86
2021/06/26 01:28:48;;;;;;;32.55;28.27;;;;;;;18.60;74.91;97249.28;1781506;79;25741;-87
2021/06/26 01:31:15;;;;;;;33.35;28.07;;;;;;;18.59;74.85;97243.56;1781484;79;26273;-86
2021/06/26 01:33:41;;;;;;;31.60;27.10;;;;;;;18.62;74.83;97240.28;1770372;80;26323;-87
2021/06/26 01:36:08;;;;;;;30.30;27.07;;;;;;;18.60;74.80;97236.44;1750523;80;25749;-86
2021/06/26 01:38:35;;;;;;;29.12;25.88;;;;;;;18.60;74.86;97230.97;1779669;79;27359;-86
2021/06/26 01:41:01;;;;;;;29.37;25.72;;;;;;;18.65;74.81;97223.34;1763152;80;25753;-87
2021/06/26 01:43:28;;;;;;;30.72;25.92;;;;;;;18.67;74.72;97225.28;1772295;80;25682;-86
2021/06/26 01:45:54;;;;;;;34.40;25.95;;;;;;;18.69;74.59;97227.20;1765853;80;25663;-87
2021/06/26 01:48:22;;;;;;;30.88;25.80;;;;;;;18.72;74.51;97225.85;1781552;80;25225;-86
2021/06/26 01:50:49;;;;;;;28.75;24.02;;;;;;;18.73;74.34;97228.30;1781494;80;28210;-87
2021/06/26 01:53:18;;;;;;;27.70;22.77;;;;;;;18.73;74.21;97224.73;1753018;80;25768;-86
2021/06/26 01:55:44;;;;;;;24.77;22.10;;;;;;;18.74;74.07;97222.28;1759846;80;25786;-86
2021/06/26 01:58:11;;;;;;;25.25;22.55;;;;;;;18.73;73.98;97229.66;1781564;80;25817;-86
2021/06/26 02:00:37;;;;;;;26.73;22.60;;;;;;;18.71;73.96;97227.77;1759747;80;25785;-86
2021/06/26 02:03:04;;;;;;;25.37;22.35;;;;;;;18.67;74.01;97223.91;1781477;80;28091;-86
2021/06/26 02:05:31;;;;;;;29.20;23.50;;;;;;;18.65;74.06;97227.45;1781446;80;25722;-85
2021/06/26 02:08:01;;;;;;;28.05;22.40;;;;;;;18.63;74.07;97229.63;1779847;80;25737;-84
2021/06/26 02:10:25;;;;;;;26.57;23.57;;;;;;;18.65;74.10;97238.39;1781118;80;25774;-88
2021/06/26 02:12:52;;;;;;;32.78;24.67;;;;;;;18.65;74.15;97236.48;1781641;80;25665;-87
2021/06/26 02:15:19;;;;;;;32.58;25.82;;;;;;;18.63;74.25;97229.63;1781406;80;27354;-87
2021/06/26 02:17:45;;;;;;;30.85;25.90;;;;;;;18.57;74.33;97232.86;1781576;80;25691;-86
2021/06/26 02:20:13;;;;;;;30.10;26.05;;;;;;;18.51;74.45;97231.18;1781272;80;25770;-86
2021/06/26 02:22:42;;;;;;;31.10;25.95;;;;;;;18.46;74.67;97234.45;1781450;80;25678;-86
2021/06/26 02:25:10;;;;;;;33.55;27.30;;;;;;;18.38;74.76;97233.56;1781623;79;25718;-87
2021/06/26 02:27:36;;;;;;;32.10;26.45;;;;;;;18.31;74.95;97222.89;1778545;79;27385;-86
2021/06/26 02:30:06;;;;;;;34.38;27.15;;;;;;;18.25;75.13;97226.12;1775729;79;25783;-87
2021/06/26 02:32:32;;;;;;;34.03;26.85;;;;;;;18.18;75.20;97221.45;1775903;79;25220;-86
2021/06/26 02:34:59;;;;;;;34.70;27.05;;;;;;;18.12;75.28;97228.49;1776103;80;25678;-86
2021/06/26 02:37:26;;;;;;;34.40;25.17;;;;;;;18.13;75.50;97229.59;1775825;80;25687;-86
2021/06/26 02:39:52;;;;;;;35.50;26.82;;;;;;;18.19;75.55;97231.30;1775966;80;27586;-86
2021/06/26 02:42:19;;;;;;;33.20;27.25;;;;;;;18.23;75.55;97241.95;1775664;80;26348;-85
2021/06/26 02:44:46;;;;;;;38.13;29.05;;;;;;;18.24;75.54;97249.06;1775806;80;25764;-85
2021/06/26 02:47:13;;;;;;;35.15;27.87;;;;;;;18.28;75.54;97250.73;1745282;80;26344;-86
2021/06/26 02:49:40;;;;;;;31.87;27.55;;;;;;;18.31;75.45;97244.75;1775859;80;25581;-82
2021/06/26 02:52:07;;;;;;;33.13;27.17;;;;;;;18.31;75.47;97250.21;1775992;80;28166;-85
2021/06/26 02:54:34;;;;;;;31.27;27.48;;;;;;;18.32;75.46;97253.22;1775590;80;26270;-87
2021/06/26 02:57:00;;;;;;;34.48;27.80;;;;;;;18.29;75.55;97264.13;1775991;79;25755;-86
2021/06/26 02:59:27;;;;;;;35.40;27.10;;;;;;;18.29;75.59;97267.41;1773461;80;25653;-86
2021/06/26 03:01:54;;;;;;;33.42;27.62;;;;;;;18.31;75.55;97274.27;1775949;80;25738;-87
2021/06/26 03:04:20;;;;;;;31.85;26.80;;;;;;;18.32;75.55;97264.98;1775758;80;26945;-87
2021/06/26 03:06:47;;;;;;;34.27;26.25;;;;;;;18.35;75.55;97263.63;1775653;80;25749;-87
2021/06/26 03:09:13;;;;;;;32.98;26.15;;;;;;;18.33;75.52;97261.16;1775914;80;25315;-87
2021/06/26 03:11:40;;;;;;;30.57;25.92;;;;;;;18.33;75.67;97258.43;1775816;80;25761;-87
2021/06/26 03:14:07;;;;;;;29.05;25.37;;;;;;;18.34;75.73;97254.61;1754426;80;25711;-86
2021/06/26 03:16:33;;;;;;;28.92;24.60;;;;;;;18.36;75.67;97256.52;1775612;80;28139;-87
2021/06/26 03:19:00;;;;;;;26.65;23.42;;;;;;;18.38;75.65;97263.63;1775927;80;25829;-86
2021/06/26 03:21:26;;;;;;;27.65;23.02;;;;;;;18.39;75.64;97264.73;1760992;80;26367;-86
2021/06/26 03:23:53;;;;;;;26.17;22.98;;;;;;;18.40;75.65;97266.92;1754754;80;26288;-85
2021/06/26 03:26:19;;;;;;;25.45;22.50;;;;;;;18.41;75.64;97265.84;1775753;80;25678;-86
2021/06/26 03:28:46;;;;;;;25.30;22.07;;;;;;;18.43;75.60;97259.57;1775527;80;28225;-86
2021/06/26 03:31:13;;;;;;;24.75;21.90;;;;;;;18.47;75.52;97264.25;1775833;79;25766;-86
2021/06/26 03:33:39;;;;;;;25.62;22.93;;;;;;;18.51;75.49;97267.25;1774568;80;25725;-86
2021/06/26 03:36:07;;;;;;;25.65;20.92;;;;;;;18.53;75.45;97271.38;1748916;80;25782;-85
2021/06/26 03:38:33;;;;;;;21.95;19.62;;;;;;;18.56;75.15;97271.39;1772927;79;25729;-85
2021/06/26 03:41:00;;;;;;;23.77;21.23;;;;;;;18.54;75.08;97273.56;1775959;80;26845;-85
2021/06/26 03:43:26;;;;;;;25.92;23.05;;;;;;;18.53;75.12;97274.66;1765914;80;25846;-85
2021/06/26 03:45:54;;;;;;;26.73;23.07;;;;;;;18.56;75.09;97272.77;1756332;80;25761;-83
2021/06/26 03:48:20;;;;;;;31.37;22.87;;;;;;;18.59;74.93;97271.73;1766918;80;25709;-82
2021/06/26 03:50:47;;;;;;;28.85;23.42;;;;;;;18.61;74.87;97268.70;1775730;80;25694;-85
2021/06/26 03:53:14;;;;;;;28.15;22.87;;;;;;;18.60;74.73;97266.51;1775901;80;27582;-84
2021/06/26 03:55:50;;;;;;;24.77;21.95;;;;;;;18.60;74.63;97273.89;1775682;80;25817;-85
2021/06/26 03:58:08;;;;;;;26.87;22.95;;;;;;;18.61;74.62;97274.17;1773802;80;26539;-81
2021/06/26 04:00:35;;;;;;;24.52;21.75;;;;;;;18.63;74.60;97276.09;1775907;80;25735;-85
2021/06/26 04:03:02;;;;;;;28.95;21.62;;;;;;;18.62;74.52;97274.45;1775901;80;25807;-85
2021/06/26 04:05:28;;;;;;;24.77;22.07;;;;;;;18.63;74.58;97272.00;1775719;80;28381;-81
2021/06/26 04:07:55;;;;;;;33.50;23.02;;;;;;;18.62;74.48;97270.35;1775670;80;25812;-84
2021/06/26 04:10:21;;;;;;;24.80;20.85;;;;;;;18.64;74.34;97268.17;1775673;79;25619;-85
2021/06/26 04:12:48;;;;;;;27.02;20.92;;;;;;;18.65;74.23;97264.36;1775747;80;25715;-84
2021/06/26 04:15:14;;;;;;;25.75;21.30;;;;;;;18.59;74.33;97260.80;1775784;80;25705;-82
2021/06/26 04:17:41;;;;;;;26.02;22.13;;;;;;;18.62;74.40;97258.05;1775410;80;27425;-84
2021/06/26 04:20:08;;;;;;;25.23;21.50;;;;;;;18.65;74.37;97252.05;1775573;80;25802;-84
2021/06/26 04:22:35;;;;;;;24.80;20.72;;;;;;;18.66;74.28;97260.54;1774628;79;25708;-82
2021/06/26 04:25:03;;;;;;;25.43;21.55;;;;;;;18.67;74.37;97263.55;1775916;80;25922;-83
2021/06/26 04:27:30;;;;;;;23.30;20.48;;;;;;;18.70;74.29;97257.02;1776404;80;25635;-83
2021/06/26 04:29:57;;;;;;;23.98;19.25;;;;;;;18.76;74.21;97255.66;1781493;80;27573;-85
2021/06/26 04:32:25;;;;;;;21.23;18.80;;;;;;;18.81;74.15;97249.67;1781469;80;25777;-83
2021/06/26 04:34:52;;;;;;;22.20;19.60;;;;;;;18.86;74.06;97253.78;1781529;80;25725;-84
2021/06/26 04:37:19;;;;;;;22.95;19.30;;;;;;;18.92;73.97;97258.19;1781529;79;26528;-82
2021/06/26 04:39:45;;;;;;;20.37;18.32;;;;;;;18.98;73.80;97263.94;1781557;80;25708;-84
2021/06/26 04:42:12;;;;;;;21.93;18.02;;;;;;;19.02;73.56;97262.33;1781498;79;27564;-86
2021/06/26 04:44:38;;;;;;;20.68;18.45;;;;;;;19.00;73.43;97265.87;1759704;80;25705;-86
2021/06/26 04:47:05;;;;;;;20.60;17.35;;;;;;;18.94;73.26;97272.97;1781607;80;25717;-85
2021/06/26 04:49:32;;;;;;;20.68;17.30;;;;;;;18.87;73.35;97280.04;1777328;79;25899;-80
2021/06/26 04:51:58;;;;;;;21.07;16.85;;;;;;;18.90;73.44;97288.26;1764350;80;25771;-84
2021/06/26 04:54:25;;;;;;;18.67;16.73;;;;;;;18.90;73.21;97289.63;1781570;80;27611;-85
2021/06/26 04:56:52;;;;;;;19.60;17.35;;;;;;;18.92;73.12;97279.25;1781382;80;25988;-84
2021/06/26 04:59:18;;;;;;;23.18;18.07;;;;;;;18.94;72.98;97287.47;1781453;80;25744;-82
2021/06/26 05:01:45;;;;;;;25.52;18.77;;;;;;;18.95;72.84;97289.12;1781366;80;26491;-85
2021/06/26 05:04:11;;;;;;;20.25;18.23;;;;;;;18.94;72.71;97280.63;1781555;80;25702;-84
2021/06/26 05:06:38;;;;;;;23.80;18.48;;;;;;;18.96;72.68;97283.89;1759614;80;26908;-85
2021/06/26 05:09:05;;;;;;;24.18;20.95;;;;;;;18.98;72.65;97287.19;1781501;80;25754;-86
2021/06/26 05:11:32;;;;;;;21.73;19.50;;;;;;;18.97;72.51;97293.75;1781656;80;25733;-84
2021/06/26 05:14:00;;;;;;;24.63;19.82;;;;;;;18.95;72.48;97293.22;1752581;80;55088;-82
2021/06/26 05:16:27;;;;;;;22.85;18.52;;;;;;;18.94;72.52;97296.22;1781360;79;25665;-83
2021/06/26 05:18:53;;;;;;;20.65;17.42;;;;;;;18.94;72.40;97297.05;1781315;80;27600;-84
2021/06/26 05:21:20;;;;;;;21.42;17.62;;;;;;;18.92;72.37;97306.59;1781149;80;25956;-84
2021/06/26 05:23:48;;;;;;;21.73;18.80;;;;;;;18.83;72.48;97300.00;1781049;80;25246;-82
2021/06/26 05:26:14;;;;;;;20.32;18.25;;;;;;;18.76;72.57;97300.23;1781609;79;25675;-84
2021/06/26 05:28:41;;;;;;;22.13;17.40;;;;;;;18.75;72.51;97302.68;1781184;80;25733;-84
2021/06/26 05:31:07;;;;;;;21.48;18.05;;;;;;;18.66;72.54;97302.37;1781373;80;28388;-84
2021/06/26 05:33:34;;;;;;;19.48;17.37;;;;;;;18.55;72.65;97304.73;1780863;80;25781;-85
2021/06/26 05:36:01;;;;;;;18.35;16.45;;;;;;;18.55;72.91;97303.91;1760454;80;25725;-84
2021/06/26 05:38:27;;;;;;;17.87;15.60;;;;;;;18.59;72.94;97302.34;1781443;79;26587;-84
2021/06/26 05:40:54;;;;;;;18.25;14.65;;;;;;;18.59;72.88;97305.08;1781353;80;26416;-84
2021/06/26 05:43:20;;;;;;;17.07;14.33;;;;;;;18.54;73.03;97315.39;1781473;79;27420;-86
2021/06/26 05:45:47;;;;;;;20.60;14.20;;;;;;;18.52;73.11;97315.37;1781453;80;25753;-85
2021/06/26 05:48:14;;;;;;;17.60;15.78;;;;;;;18.52;73.35;97324.39;1781715;80;25657;-84
2021/06/26 05:50:40;;;;;;;18.85;15.75;;;;;;;18.54;73.24;97320.86;1750619;80;25834;-84
2021/06/26 05:53:07;;;;;;;17.02;14.95;;;;;;;18.58;73.18;97318.46;1781597;80;25469;-81
2021/06/26 05:55:34;;;;;;;17.80;16.00;;;;;;;18.61;73.04;97316.54;1763655;80;28313;-82
2021/06/26 05:58:00;;;;;;;17.60;15.53;;;;;;;18.63;73.26;97318.47;1755820;80;25810;-82
2021/06/26 06:00:32;;;;;;;18.32;15.63;;;;;;;18.59;73.40;97318.74;1771997;80;25634;-83
2021/06/26 06:02:55;;;;;;;17.35;15.50;;;;;;;18.55;73.43;97320.31;1760711;79;26470;-82
2021/06/26 06:05:22;;;;;;;19.12;15.93;;;;;;;18.51;73.48;97323.28;1768412;79;26524;-84
2021/06/26 06:07:48;;;;;;;19.62;17.20;;;;;;;18.45;73.81;97324.36;1759747;80;28407;-83
2021/06/26 06:10:17;;;;;;;18.45;16.48;;;;;;;18.42;74.18;97326.24;1781649;79;26322;-82
2021/06/26 06:12:44;;;;;;;24.30;16.90;;;;;;;18.41;74.35;97322.69;1781629;79;25638;-85
2021/06/26 06:15:13;;;;;;;18.77;16.77;;;;;;;18.40;74.61;97327.05;1781674;79;25796;-86
2021/06/26 06:17:40;;;;;;;18.02;16.12;;;;;;;18.31;74.65;97326.17;1781741;80;25718;-88
2021/06/26 06:20:08;;;;;;;17.15;15.10;;;;;;;18.31;75.01;97326.72;1781329;80;27392;-88
2021/06/26 06:22:35;;;;;;;21.82;16.95;;;;;;;18.27;75.05;97332.42;1781469;79;25880;-88
2021/06/26 06:25:06;;;;;;;22.20;19.90;;;;;;;18.25;75.32;97326.39;1781479;80;25711;-90
2021/06/26 06:27:36;;;;;;;24.57;18.75;;;;;;;18.28;75.48;97338.98;1782029;80;25733;-91
2021/06/26 06:30:01;;;;;;;24.85;19.20;;;;;;;18.28;75.46;97334.89;1754319;79;25664;-90
2021/06/26 06:32:28;;;;;;;22.07;19.77;;;;;;;18.28;75.49;97333.52;1775821;80;27576;-88
2021/06/26 06:34:54;;;;;;;23.47;20.17;;;;;;;18.26;75.54;97325.30;1776196;79;25678;-89
2021/06/26 06:37:21;;;;;;;23.07;20.62;;;;;;;18.24;75.57;97326.10;1775888;80;25818;-89
2021/06/26 06:39:47;;;;;;;24.20;21.02;;;;;;;18.20;75.49;97324.45;1776113;80;25847;-90
2021/06/26 06:42:14;;;;;;;22.90;20.48;;;;;;;18.20;75.57;97323.09;1775788;80;25663;-90
2021/06/26 06:44:40;;;;;;;22.50;20.12;;;;;;;18.23;75.66;97321.75;1776040;80;28130;-90
2021/06/26 06:47:07;;;;;;;22.35;19.45;;;;;;;18.27;75.70;97316.02;1775758;79;25742;-91
2021/06/26 06:49:34;;;;;;;24.37;20.15;;;;;;;18.31;75.94;97321.25;1776200;79;25620;-90
2021/06/26 06:52:00;;;;;;;24.52;20.12;;;;;;;18.35;76.09;97321.81;1775776;79;25682;-89
2021/06/26 06:54:27;;;;;;;24.67;20.17;;;;;;;18.42;76.25;97323.51;1775952;80;25753;-90
2021/06/26 06:56:54;;;;;;;21.93;19.67;;;;;;;18.46;76.30;97320.54;1776028;79;28150;-90
2021/06/26 06:59:20;;;;;;;22.27;18.92;;;;;;;18.49;76.27;97330.92;1775686;79;25856;-92
2021/06/26 07:01:47;;;;;;;21.52;19.32;;;;;;;18.54;76.28;97337.80;1776235;79;26296;-91
2021/06/26 07:04:13;;;;;;;23.27;20.00;;;;;;;18.50;76.05;97336.67;1754040;80;25911;-91
2021/06/26 07:06:40;;;;;;;23.98;20.80;;;;;;;18.47;76.22;97337.22;1776107;80;25690;-90
2021/06/26 07:09:06;;;;;;;25.60;22.15;;;;;;;18.51;76.24;97336.95;1749919;80;27341;-89
2021/06/26 07:11:33;;;;;;;26.00;20.50;;;;;;;18.57;76.07;97340.02;1739589;80;25750;-89
2021/06/26 07:14:00;;;;;;;24.80;22.15;;;;;;;18.59;76.11;97339.24;1764727;80;25844;-88
2021/06/26 07:16:26;;;;;;;23.77;21.40;;;;;;;18.59;76.21;97338.70;1775737;80;25771;-88
2021/06/26 07:18:53;;;;;;;26.27;23.07;;;;;;;18.62;76.32;97337.33;1776124;80;26733;-88
2021/06/26 07:21:19;;;;;;;28.62;21.65;;;;;;;18.63;76.16;97334.88;1775582;80;27249;-87
2021/06/26 07:23:46;;;;;;;29.27;24.92;;;;;;;18.66;76.10;97333.81;1775326;80;25979;-88
2021/06/26 07:26:12;;;;;;;25.40;20.45;;;;;;;18.66;75.92;97338.45;1775735;80;25797;-86
2021/06/26 07:28:39;;;;;;;23.85;19.98;;;;;;;18.64;75.91;97334.61;1750047;80;25807;-87
2021/06/26 07:31:06;;;;;;;20.05;17.82;;;;;;;18.65;75.85;97336.80;1762864;80;25714;-87
2021/06/26 07:33:32;;;;;;;22.32;17.17;;;;;;;18.68;75.91;97330.81;1754295;80;27645;-85
2021/06/26 07:35:59;;;;;;;20.27;16.12;;;;;;;18.73;75.75;97339.03;1775700;80;25753;-88
2021/06/26 07:38:26;;;;;;;17.57;15.28;;;;;;;18.69;75.60;97331.92;1775855;80;25789;-88
2021/06/26 07:40:52;;;;;;;17.85;13.60;;;;;;;18.69;75.54;97341.49;1776004;80;25715;-87
2021/06/26 07:43:20;;;;;;;14.78;13.18;;;;;;;18.69;75.46;97336.56;1775895;80;25768;-87
2021/06/26 07:45:46;;;;;;;30.70;25.27;;;;;;;18.71;75.44;97331.66;1775942;80;27609;-88
2021/06/26 07:48:13;;;;;;;17.57;15.32;;;;;;;18.74;75.34;97331.66;1775640;80;25900;-91
2021/06/26 07:50:39;;;;;;;15.20;13.68;;;;;;;18.75;75.36;97335.48;1775990;80;25828;-89
2021/06/26 07:53:06;;;;;;;15.93;14.33;;;;;;;18.77;75.33;97334.69;1775691;80;26525;-90
2021/06/26 07:55:34;;;;;;;18.05;15.05;;;;;;;18.79;75.37;97340.72;1775754;80;25797;-88
2021/06/26 07:58:00;;;;;;;16.57;14.98;;;;;;;18.77;75.33;97338.79;1776082;79;27640;-88
2021/06/26 08:00:27;;;;;;;17.70;15.93;;;;;;;18.75;75.52;97331.39;1775791;80;25741;-87
2021/06/26 08:02:53;;;;;;;18.17;16.27;;;;;;;18.71;75.64;97342.59;1750670;80;25776;-89
2021/06/26 08:05:20;;;;;;;18.37;16.48;;;;;;;18.71;75.85;97339.86;1765662;80;25688;-89
2021/06/26 08:07:47;;;;;;;17.75;15.18;;;;;;;18.73;75.79;97339.57;1775946;80;25697;-90
2021/06/26 08:10:13;;;;;;;18.05;16.15;;;;;;;18.74;75.77;97342.05;1775673;80;27311;-88
2021/06/26 08:12:40;;;;;;;17.07;15.28;;;;;;;18.73;75.61;97331.37;1775651;79;25803;-85
2021/06/26 08:15:07;;;;;;;17.82;15.45;;;;;;;18.74;75.73;97332.47;1775651;80;25748;-88
2021/06/26 08:17:34;;;;;;;17.92;15.08;;;;;;;18.76;75.58;97328.11;1775704;80;26464;-84
2021/06/26 08:20:00;;;;;;;19.67;15.60;;;;;;;18.80;75.58;97325.95;1772689;80;25215;-87
2021/06/26 08:22:27;;;;;;;16.48;14.85;;;;;;;18.88;75.59;97332.28;1773228;79;27425;-87
2021/06/26 08:24:54;;;;;;;15.98;14.28;;;;;;;18.90;75.49;97321.08;1776011;80;25750;-88
2021/06/26 08:27:20;;;;;;;18.70;15.45;;;;;;;18.94;75.37;97321.66;1775810;79;25689;-87
2021/06/26 08:29:47;;;;;;;19.37;16.65;;;;;;;18.99;75.22;97324.40;1778344;79;25809;-88
2021/06/26 08:32:13;;;;;;;20.80;16.65;;;;;;;19.04;75.23;97323.06;1781532;80;25732;-89
2021/06/26 08:34:40;;;;;;;21.45;16.52;;;;;;;19.08;75.10;97317.31;1781577;80;28496;-87
2021/06/26 08:37:06;;;;;;;19.48;17.35;;;;;;;19.11;75.07;97317.87;1781458;80;25902;-89
2021/06/26 08:39:33;;;;;;;19.37;17.37;;;;;;;19.14;75.03;97314.61;1781596;80;25753;-89
2021/06/26 08:42:01;;;;;;;18.82;16.62;;;;;;;19.17;74.83;97317.64;1781876;80;25728;-87
2021/06/26 08:44:28;;;;;;;18.70;16.75;;;;;;;19.17;74.87;97316.27;1781626;80;25777;-89
2021/06/26 08:46:56;;;;;;;18.80;17.00;;;;;;;19.18;74.94;97318.47;1781587;80;27337;-89
2021/06/26 08:49:23;;;;;;;20.27;18.12;;;;;;;19.24;75.02;97314.09;1781358;80;25789;-85
2021/06/26 08:51:49;;;;;;;20.32;17.23;;;;;;;19.33;74.97;97311.11;1781713;80;26321;-89
2021/06/26 08:54:17;;;;;;;18.90;16.87;;;;;;;19.41;74.83;97303.77;1781501;80;26459;-89
2021/06/26 08:56:46;;;;;;;18.80;15.90;;;;;;;19.53;74.51;97300.80;1781549;80;25702;-88
2021/06/26 08:59:13;;;;;;;18.20;16.00;;;;;;;19.64;74.06;97298.36;1781538;80;28177;-86
2021/06/26 09:01:41;;;;;;;17.67;15.98;;;;;;;19.74;73.77;97300.28;1781403;80;26349;-87
2021/06/26 09:04:11;;;;;;;19.15;15.23;;;;;;;19.85;73.49;97299.73;1759757;80;25838;-87
2021/06/26 09:06:57;;;;;;;17.20;15.48;;;;;;;19.91;73.50;97301.40;1781608;80;26484;-87
2021/06/26 09:09:36;;;;;;;17.42;15.00;;;;;;;19.98;73.45;97295.09;1781537;80;25772;-85
2021/06/26 09:12:09;;;;;;;18.62;16.73;;;;;;;20.02;73.36;97288.80;1781565;80;27322;-85
2021/06/26 09:14:39;;;;;;;18.70;16.02;;;;;;;20.06;73.39;97292.61;1781465;80;25762;-81
2021/06/26 09:17:07;;;;;;;19.05;16.17;;;;;;;20.19;73.08;97292.60;1781473;80;25765;-91
2021/06/26 09:19:36;;;;;;;17.57;15.10;;;;;;;20.27;72.61;97293.44;1780716;79;25686;-81
2021/06/26 09:22:09;;;;;;;14.20;12.80;;;;;;;20.32;72.52;97282.99;1781196;80;25746;-80
2021/06/26 09:24:43;;;;;;;14.45;11.60;;;;;;;20.39;72.19;97289.89;1775992;79;27390;-83
2021/06/26 09:27:15;;;;;;;14.10;12.70;;;;;;;20.53;71.80;97288.73;1756622;79;25827;-84
2021/06/26 09:29:56;;;;;;;14.05;12.73;;;;;;;20.59;71.51;97281.33;1770674;79;26418;-83
2021/06/26 09:32:27;;;;;;;13.40;12.10;;;;;;;20.62;70.97;97294.50;1771088;80;25858;-86
2021/06/26 09:34:57;;;;;;;13.75;11.40;;;;;;;20.74;71.24;97288.98;1775702;78;25739;-82
2021/06/26 09:37:31;;;;;;;14.03;11.18;;;;;;;20.89;70.98;97288.66;1775976;78;27360;-84
2021/06/26 09:40:00;;;;;;;12.33;11.12;;;;;;;20.98;70.51;97285.05;1745411;80;25809;-87
2021/06/26 09:42:39;;;;;;;12.98;11.35;;;;;;;21.00;70.29;97284.22;1776192;79;25821;-85
2021/06/26 09:45:09;;;;;;;12.07;10.80;;;;;;;21.10;70.15;97291.03;1773357;78;26340;-84
2021/06/26 09:47:41;;;;;;;13.50;12.03;;;;;;;21.36;70.82;97286.82;1776396;80;25769;-84
2021/06/26 09:50:27;;;;;;;12.30;10.98;;;;;;;21.67;70.34;97290.19;1776133;78;27369;-84
2021/06/26 09:53:06;;;;;;;11.40;10.23;;;;;;;21.91;70.26;97287.80;1773999;80;25929;-81
2021/06/26 09:55:39;;;;;;;13.48;11.00;;;;;;;22.00;69.37;97285.84;1745484;78;26191;-82
2021/06/26 09:58:12;;;;;;;11.53;10.45;;;;;;;22.18;68.99;97289.27;1750943;78;25702;-81
2021/06/26 10:00:41;;;;;;;11.22;10.00;;;;;;;22.39;68.43;97290.72;1771407;78;25694;-82
2021/06/26 10:03:08;;;;;;;10.82;9.93;;;;;;;22.53;67.72;97287.55;1754427;80;27392;-83
2021/06/26 10:05:35;;;;;;;11.08;9.95;;;;;;;22.50;66.63;97288.68;1785492;79;25790;-83
2021/06/26 10:08:05;;;;;;;11.28;10.18;;;;;;;22.35;66.01;97278.64;1786100;79;25751;-83
2021/06/26 10:10:33;;;;;;;11.73;9.18;;;;;;;22.20;66.46;97280.19;1776766;78;26452;-82
2021/06/26 10:12:59;;;;;;;16.30;13.85;;;;;;;22.08;66.59;97257.75;1759618;80;25706;-83
2021/06/26 10:15:31;;;;;;;13.05;11.73;;;;;;;22.30;66.60;97280.09;1770142;81;27397;-84
2021/06/26 10:17:58;;;;;;;10.55;9.55;;;;;;;22.30;66.70;97274.59;1770169;81;25757;-83
2021/06/26 10:20:27;;;;;;;9.93;8.93;;;;;;;22.36;66.69;97272.03;1755981;80;25299;-81
2021/06/26 10:23:00;;;;;;;10.58;9.50;;;;;;;22.80;66.61;97276.57;1755726;80;26278;-83
2021/06/26 10:25:32;;;;;;;10.38;9.38;;;;;;;23.22;66.28;97278.52;1755492;80;26263;-85
2021/06/26 10:28:08;;;;;;;;;;;;;;;23.22;65.52;97247.66;1758731;80;28390;-86
2021/06/26 10:30:36;;;;;;;10.45;9.38;;;;;;;23.42;64.53;97274.13;1767270;80;25682;-84
2021/06/26 10:33:06;;;;;;;10.00;8.83;;;;;;;23.70;65.39;97270.97;1793280;78;25722;-85
2021/06/26 10:35:36;;;;;;;12.95;8.13;;;;;;;23.97;65.00;97273.03;1793017;78;26500;-83
2021/06/26 10:38:12;;;;;;;9.98;8.43;;;;;;;24.20;64.05;97274.02;1761734;80;25766;-83
2021/06/26 10:40:48;;;;;;;10.15;9.08;;;;;;;24.45;63.64;97274.17;1761598;80;27375;-84
2021/06/26 10:43:28;;;;;;;8.65;7.62;;;;;;;24.63;63.11;97269.97;1761620;80;25806;-85
2021/06/26 10:46:10;;;;;;;9.03;8.23;;;;;;;24.95;63.02;97259.98;1761630;80;25920;-86
2021/06/26 10:48:37;;;;;;;;;;;;;;;25.12;61.84;97260.16;1736602;81;26697;-85
2021/06/26 10:51:05;;;;;;;9.00;7.85;;;;;;;24.99;61.03;97264.59;1773128;80;25741;-85
2021/06/26 10:53:35;;;;;;;8.35;7.65;;;;;;;24.95;60.94;97268.27;1761738;80;27455;-81
2021/06/26 10:56:09;;;;;;;7.85;7.12;;;;;;;25.00;60.48;97262.63;1788048;78;25990;-85
2021/06/26 10:58:40;;;;;;;8.78;7.87;;;;;;;25.10;59.98;97263.82;1793089;78;25936;-82
2021/06/26 11:01:17;;;;;;;9.20;7.22;;;;;;;25.19;60.43;97268.87;1790261;78;26416;-89
2021/06/26 11:03:46;;;;;;;9.28;7.40;;;;;;;25.23;59.54;97261.61;1776250;79;25871;-87
2021/06/26 11:06:27;;;;;;;8.35;7.53;;;;;;;25.22;59.17;97262.73;1792945;80;27526;-90
2021/06/26 11:09:06;;;;;;;9.45;8.20;;;;;;;25.38;59.21;97259.05;1792815;80;25744;-85
2021/06/26 11:11:50;;;;;;;8.08;7.35;;;;;;;25.49;59.28;97255.75;1761800;80;25770;-87
2021/06/26 11:14:26;;;;;;;8.10;6.90;;;;;;;25.53;58.51;97255.13;1761680;80;26272;-85
2021/06/26 11:16:56;;;;;;;7.80;7.00;;;;;;;25.41;58.22;97255.11;1793220;78;25691;-85
2021/06/26 11:19:32;;;;;;;8.70;7.78;;;;;;;25.38;58.19;97254.91;1792760;80;27377;-86
2021/06/26 11:22:01;;;;;;;8.98;7.58;;;;;;;25.38;57.80;97248.81;1792691;79;25705;-86